Time;durP1;ratioP1;P1;durP2;ratioP2;P2;SDS_P1;SDS_P2;PMS_P1;PMS_P2;Temp;Humidity;BMP_temperature;BMP_pressure;BME280_temperature;BME280_humidity;BME280_pressure;Samples;Min_cycle;Max_cycle;Signal;HPM_P1;HPM_P2
2023/09/29 00:01:03;;;;;;;0.10;0.10;;;;;;;;;;4961039;28;20035;-88
2023/09/29 00:03:29;;;;;;;0.15;0.15;;;;;;;;;;4960287;28;20121;-89
2023/09/29 00:05:55;;;;;;;0.10;0.10;;;;;;;;;;4978057;28;20039;-88
2023/09/29 00:08:22;;;;;;;0.20;0.20;;;;;;;;;;4960256;28;20069;-89
2023/09/29 00:10:50;;;;;;;0.15;0.15;;;;;;;;;;4960844;28;20043;-88
2023/09/29 00:13:16;;;;;;;0.10;0.10;;;;;;;;;;4962273;28;20078;-89
2023/09/29 00:15:42;;;;;;;0.20;0.20;;;;;;;;;;4964790;28;20047;-89
2023/09/29 00:18:08;;;;;;;0.20;0.20;;;;;;;;;;4963665;28;20065;-90
2023/09/29 00:20:35;;;;;;;0.28;0.28;;;;;;;;;;4964381;28;20043;-87
2023/09/29 00:23:01;;;;;;;0.28;0.28;;;;;;;;;;4963736;28;20031;-88
2023/09/29 00:25:28;;;;;;;0.10;0.10;;;;;;;;;;4964611;28;20035;-88
2023/09/29 00:27:55;;;;;;;0.17;0.17;;;;;;;;;;4964019;28;20039;-88
2023/09/29 00:30:21;;;;;;;0.22;0.22;;;;;;;;;;4964410;28;20061;-88
2023/09/29 00:32:51;;;;;;;0.10;0.10;;;;;;;;;;4964313;28;20043;-88
2023/09/29 00:35:30;;;;;;;0.10;0.10;;;;;;;;;;4981344;28;20055;-89
2023/09/29 00:37:57;;;;;;;0.20;0.20;;;;;;;;;;4963545;28;20050;-88
2023/09/29 00:40:24;;;;;;;0.10;0.10;;;;;;;;;;4963069;28;20046;-89
2023/09/29 00:42:50;;;;;;;0.10;0.10;;;;;;;;;;4963575;28;20448;-89
2023/09/29 00:45:22;;;;;;;0.17;0.17;;;;;;;;;;4979278;28;20047;-88
2023/09/29 00:47:50;;;;;;;0.20;0.20;;;;;;;;;;4962447;28;20130;-87
2023/09/29 00:50:18;;;;;;;0.20;0.20;;;;;;;;;;4979199;28;20134;-87
2023/09/29 00:52:46;;;;;;;0.10;0.10;;;;;;;;;;4962728;28;20038;-87
2023/09/29 00:55:16;;;;;;;0.30;0.30;;;;;;;;;;4963086;28;20050;-88
2023/09/29 00:57:44;;;;;;;0.10;0.10;;;;;;;;;;4962935;28;20051;-88
2023/09/29 01:00:21;;;;;;;0.25;0.25;;;;;;;;;;4962976;28;20479;-88
2023/09/29 01:02:50;;;;;;;0.22;0.22;;;;;;;;;;4963364;28;20039;-87
2023/09/29 01:05:17;;;;;;;0.30;0.30;;;;;;;;;;4980416;28;20135;-88
2023/09/29 01:07:46;;;;;;;0.15;0.15;;;;;;;;;;4963744;28;20061;-88
2023/09/29 01:10:13;;;;;;;0.20;0.20;;;;;;;;;;4962686;28;20050;-88
2023/09/29 01:12:40;;;;;;;0.28;0.28;;;;;;;;;;4962167;28;20050;-87
2023/09/29 01:15:06;;;;;;;0.20;0.20;;;;;;;;;;4962228;28;20093;-89
2023/09/29 01:17:33;;;;;;;0.20;0.20;;;;;;;;;;4977929;28;20058;-87
2023/09/29 01:19:59;;;;;;;0.25;0.25;;;;;;;;;;4962623;28;20046;-89
2023/09/29 01:22:26;;;;;;;0.10;0.10;;;;;;;;;;4963530;28;20046;-88
2023/09/29 01:24:53;;;;;;;0.28;0.28;;;;;;;;;;4961977;28;20047;-88
2023/09/29 01:27:19;;;;;;;0.20;0.20;;;;;;;;;;4962711;28;20069;-88
2023/09/29 01:29:47;;;;;;;0.30;0.30;;;;;;;;;;4978962;28;20043;-87
2023/09/29 01:32:18;;;;;;;0.10;0.10;;;;;;;;;;4978711;28;20046;-86
2023/09/29 01:34:45;;;;;;;0.20;0.20;;;;;;;;;;4978976;28;20042;-89
2023/09/29 01:37:13;;;;;;;0.15;0.15;;;;;;;;;;4963349;28;20050;-91
2023/09/29 01:39:39;;;;;;;0.15;0.15;;;;;;;;;;4961789;28;20081;-87
2023/09/29 01:42:07;;;;;;;0.20;0.20;;;;;;;;;;4962040;28;20491;-87
2023/09/29 01:44:33;;;;;;;0.30;0.30;;;;;;;;;;4962912;28;20035;-88
2023/09/29 01:46:59;;;;;;;0.20;0.20;;;;;;;;;;4962929;28;20062;-89
2023/09/29 01:49:25;;;;;;;0.20;0.20;;;;;;;;;;4961302;28;20042;-88
2023/09/29 01:51:51;;;;;;;0.00;0.00;;;;;;;;;;4978967;28;20043;-88
2023/09/29 01:54:17;;;;;;;0.30;0.30;;;;;;;;;;4962056;28;20110;-88
2023/09/29 01:56:43;;;;;;;0.20;0.20;;;;;;;;;;4961836;28;20050;-88
2023/09/29 01:59:10;;;;;;;0.20;0.20;;;;;;;;;;4976855;28;20045;-89
2023/09/29 02:01:37;;;;;;;0.25;0.25;;;;;;;;;;4977755;28;20039;-89
2023/09/29 02:04:03;;;;;;;0.20;0.20;;;;;;;;;;4961384;28;20081;-86
2023/09/29 02:06:29;;;;;;;0.25;0.25;;;;;;;;;;4962877;28;20105;-88
2023/09/29 02:08:57;;;;;;;0.20;0.20;;;;;;;;;;4961060;28;20569;-88
2023/09/29 02:11:28;;;;;;;0.20;0.20;;;;;;;;;;4979556;28;20050;-88
2023/09/29 02:13:54;;;;;;;0.15;0.15;;;;;;;;;;4977952;28;20415;-88
2023/09/29 02:16:20;;;;;;;0.10;0.10;;;;;;;;;;4977865;28;20081;-84
2023/09/29 02:18:46;;;;;;;0.10;0.10;;;;;;;;;;4960393;28;20067;-87
2023/09/29 02:21:21;;;;;;;0.30;0.30;;;;;;;;;;4962315;28;20062;-88
2023/09/29 02:23:48;;;;;;;0.25;0.25;;;;;;;;;;4961471;28;20054;-87
2023/09/29 02:26:17;;;;;;;0.20;0.20;;;;;;;;;;4961682;28;20456;-88
2023/09/29 02:28:43;;;;;;;0.20;0.20;;;;;;;;;;4977238;28;20085;-88
2023/09/29 02:31:13;;;;;;;0.20;0.20;;;;;;;;;;4961461;28;20042;-90
2023/09/29 02:33:57;;;;;;;0.15;0.15;;;;;;;;;;4961388;28;20043;-89
2023/09/29 02:36:23;;;;;;;0.20;0.20;;;;;;;;;;4962487;28;20459;-87
2023/09/29 02:38:49;;;;;;;0.20;0.20;;;;;;;;;;4960864;28;20039;-88
2023/09/29 02:41:15;;;;;;;0.30;0.30;;;;;;;;;;4961736;28;20034;-88
2023/09/29 02:43:41;;;;;;;0.20;0.20;;;;;;;;;;4961330;28;20140;-89
2023/09/29 02:46:14;;;;;;;0.20;0.20;;;;;;;;;;4962580;28;20503;-88
2023/09/29 02:48:41;;;;;;;0.20;0.20;;;;;;;;;;4944749;28;20045;-88
2023/09/29 02:51:16;;;;;;;0.15;0.15;;;;;;;;;;4962260;28;20054;-88
2023/09/29 02:53:42;;;;;;;0.20;0.20;;;;;;;;;;4961224;28;20043;-89
2023/09/29 02:56:11;;;;;;;0.20;0.20;;;;;;;;;;4961866;28;20574;-88
2023/09/29 02:58:38;;;;;;;0.20;0.20;;;;;;;;;;4961003;28;20075;-88
2023/09/29 03:01:06;;;;;;;0.20;0.20;;;;;;;;;;4961180;28;20504;-88
2023/09/29 03:03:32;;;;;;;0.28;0.28;;;;;;;;;;4962796;28;20050;-89
2023/09/29 03:05:58;;;;;;;0.20;0.20;;;;;;;;;;4962392;28;20178;-88
2023/09/29 03:08:24;;;;;;;0.20;0.20;;;;;;;;;;4960479;28;20039;-88
2023/09/29 03:10:50;;;;;;;0.10;0.10;;;;;;;;;;4960183;28;20558;-87
2023/09/29 03:13:16;;;;;;;0.13;0.13;;;;;;;;;;4960710;28;20043;-87
2023/09/29 03:15:43;;;;;;;0.20;0.20;;;;;;;;;;4977899;28;20050;-89
2023/09/29 03:18:10;;;;;;;0.20;0.20;;;;;;;;;;4960390;28;20554;-88
2023/09/29 03:20:36;;;;;;;0.20;0.20;;;;;;;;;;4977698;28;20038;-87
2023/09/29 03:23:04;;;;;;;0.22;0.22;;;;;;;;;;4960877;28;20042;-87
2023/09/29 03:25:32;;;;;;;0.10;0.10;;;;;;;;;;4945706;28;20050;-91
2023/09/29 03:27:59;;;;;;;0.20;0.20;;;;;;;;;;4961657;28;20049;-90
2023/09/29 03:30:26;;;;;;;0.10;0.10;;;;;;;;;;4960858;28;20105;-90
2023/09/29 03:32:52;;;;;;;0.25;0.25;;;;;;;;;;4961359;28;20133;-90
2023/09/29 03:35:18;;;;;;;0.30;0.30;;;;;;;;;;4947001;29;20039;-90
2023/09/29 03:37:45;;;;;;;0.20;0.20;;;;;;;;;;4941466;29;20043;-89
2023/09/29 03:40:13;;;;;;;0.20;0.20;;;;;;;;;;4942988;29;20039;-90
2023/09/29 03:42:42;;;;;;;0.17;0.17;;;;;;;;;;4943916;29;20043;-90
2023/09/29 03:45:36;;;;;;;0.25;0.25;;;;;;;;;;4962433;28;20058;-90
2023/09/29 03:48:03;;;;;;;0.20;0.20;;;;;;;;;;4964685;28;20047;-90
2023/09/29 03:50:30;;;;;;;0.30;0.30;;;;;;;;;;4967114;28;20044;-92
2023/09/29 03:52:56;;;;;;;0.32;0.32;;;;;;;;;;4967526;28;20031;-90
2023/09/29 03:55:22;;;;;;;0.20;0.20;;;;;;;;;;4966111;28;20500;-90
2023/09/29 03:57:49;;;;;;;0.20;0.20;;;;;;;;;;4964305;28;20096;-90
2023/09/29 04:00:18;;;;;;;0.30;0.30;;;;;;;;;;4965245;28;20484;-91
2023/09/29 04:02:44;;;;;;;0.10;0.10;;;;;;;;;;4965109;28;20046;-90
2023/09/29 04:05:11;;;;;;;0.20;0.20;;;;;;;;;;4981855;28;20566;-90
2023/09/29 04:07:37;;;;;;;0.10;0.10;;;;;;;;;;4949220;28;20253;-89
2023/09/29 04:10:05;;;;;;;0.30;0.30;;;;;;;;;;4980675;28;20042;-91
2023/09/29 04:12:31;;;;;;;0.20;0.20;;;;;;;;;;4981525;28;20139;-90
2023/09/29 04:14:59;;;;;;;0.20;0.20;;;;;;;;;;4982751;28;20079;-90
2023/09/29 04:17:25;;;;;;;0.30;0.30;;;;;;;;;;4966120;28;20046;-90
2023/09/29 04:19:51;;;;;;;0.30;0.30;;;;;;;;;;4964242;28;20042;-90
2023/09/29 04:22:17;;;;;;;0.10;0.10;;;;;;;;;;4964763;28;20074;-90
2023/09/29 04:24:43;;;;;;;0.30;0.30;;;;;;;;;;4965761;28;20101;-91
2023/09/29 04:27:09;;;;;;;0.20;0.20;;;;;;;;;;4965856;28;20058;-90
2023/09/29 04:29:35;;;;;;;0.25;0.25;;;;;;;;;;4979944;28;20046;-89
2023/09/29 04:32:02;;;;;;;0.20;0.20;;;;;;;;;;4965109;28;20106;-90
2023/09/29 04:34:28;;;;;;;0.20;0.20;;;;;;;;;;4981126;28;20043;-90
2023/09/29 04:36:54;;;;;;;0.20;0.20;;;;;;;;;;4965327;28;20130;-90
2023/09/29 04:39:20;;;;;;;0.10;0.10;;;;;;;;;;4963112;28;20530;-91
2023/09/29 04:41:47;;;;;;;0.13;0.13;;;;;;;;;;4964336;28;20043;-90
2023/09/29 04:44:14;;;;;;;0.20;0.20;;;;;;;;;;4964323;28;20039;-91
2023/09/29 04:46:50;;;;;;;0.20;0.20;;;;;;;;;;4980640;28;20496;-90
2023/09/29 04:49:16;;;;;;;0.20;0.20;;;;;;;;;;4963469;28;20054;-90
2023/09/29 04:51:43;;;;;;;0.25;0.25;;;;;;;;;;4964207;28;20145;-89
2023/09/29 04:54:10;;;;;;;0.10;0.10;;;;;;;;;;4963690;28;20051;-90
2023/09/29 04:56:36;;;;;;;0.20;0.20;;;;;;;;;;4964953;28;20059;-91
2023/09/29 04:59:02;;;;;;;0.20;0.20;;;;;;;;;;4962455;28;20096;-90
2023/09/29 05:01:28;;;;;;;0.20;0.20;;;;;;;;;;4963140;28;20346;-89
2023/09/29 05:03:54;;;;;;;0.20;0.20;;;;;;;;;;4963426;28;20137;-88
2023/09/29 05:06:23;;;;;;;0.17;0.17;;;;;;;;;;4980803;28;20041;-89
2023/09/29 05:08:50;;;;;;;0.10;0.10;;;;;;;;;;4962721;28;20492;-89
2023/09/29 05:11:23;;;;;;;0.13;0.13;;;;;;;;;;4947056;28;20042;-89
2023/09/29 05:13:49;;;;;;;0.10;0.10;;;;;;;;;;4963058;28;20043;-87
2023/09/29 05:16:16;;;;;;;0.20;0.20;;;;;;;;;;4963714;28;20043;-89
2023/09/29 05:18:42;;;;;;;0.30;0.30;;;;;;;;;;4962668;28;20047;-90
2023/09/29 05:21:09;;;;;;;0.20;0.20;;;;;;;;;;4964527;28;20039;-88
2023/09/29 05:23:35;;;;;;;0.30;0.30;;;;;;;;;;4962856;28;20070;-89
2023/09/29 05:26:02;;;;;;;0.30;0.30;;;;;;;;;;4964149;28;20039;-89
2023/09/29 05:28:28;;;;;;;0.20;0.20;;;;;;;;;;4979151;28;20058;-90
2023/09/29 05:30:55;;;;;;;0.20;0.20;;;;;;;;;;4963354;28;20046;-89
2023/09/29 05:33:23;;;;;;;0.10;0.10;;;;;;;;;;4962879;28;20051;-90
2023/09/29 05:35:50;;;;;;;0.20;0.20;;;;;;;;;;4980695;28;20407;-89
2023/09/29 05:38:16;;;;;;;0.20;0.20;;;;;;;;;;4962067;28;20054;-89
2023/09/29 05:40:43;;;;;;;0.15;0.15;;;;;;;;;;4962632;28;20134;-90
2023/09/29 05:43:10;;;;;;;0.10;0.10;;;;;;;;;;4961945;28;20041;-89
2023/09/29 05:45:45;;;;;;;0.10;0.10;;;;;;;;;;4963150;28;20043;-90
2023/09/29 05:48:11;;;;;;;0.25;0.25;;;;;;;;;;4962566;28;20043;-89
2023/09/29 05:50:37;;;;;;;0.20;0.20;;;;;;;;;;4980399;28;20759;-91
2023/09/29 05:53:04;;;;;;;0.10;0.10;;;;;;;;;;4963941;28;20033;-90
2023/09/29 05:55:30;;;;;;;0.20;0.20;;;;;;;;;;4979441;28;20042;-90
2023/09/29 05:57:56;;;;;;;0.30;0.30;;;;;;;;;;4962512;28;20043;-89
2023/09/29 06:00:24;;;;;;;0.30;0.30;;;;;;;;;;4961610;28;20054;-88
2023/09/29 06:02:50;;;;;;;0.28;0.28;;;;;;;;;;4962949;28;20603;-90
2023/09/29 06:05:17;;;;;;;0.20;0.20;;;;;;;;;;4963470;28;20480;-89
2023/09/29 06:07:44;;;;;;;0.30;0.30;;;;;;;;;;4961362;28;20568;-89
2023/09/29 06:10:10;;;;;;;0.30;0.30;;;;;;;;;;4961798;28;20039;-89
2023/09/29 06:12:37;;;;;;;0.13;0.13;;;;;;;;;;4979444;28;20047;-90
2023/09/29 06:15:03;;;;;;;0.30;0.30;;;;;;;;;;4962766;28;20141;-90
2023/09/29 06:17:30;;;;;;;0.20;0.20;;;;;;;;;;4962543;28;20049;-90
2023/09/29 06:19:59;;;;;;;0.20;0.20;;;;;;;;;;4962513;28;20086;-91
2023/09/29 06:22:25;;;;;;;0.10;0.10;;;;;;;;;;4962338;28;20073;-89
2023/09/29 06:24:52;;;;;;;0.20;0.20;;;;;;;;;;4962731;28;20046;-88
2023/09/29 06:27:18;;;;;;;0.10;0.10;;;;;;;;;;4961980;28;20495;-89
2023/09/29 06:29:46;;;;;;;0.22;0.22;;;;;;;;;;4962180;28;20089;-89
2023/09/29 06:32:13;;;;;;;0.20;0.20;;;;;;;;;;4961732;28;20542;-90
2023/09/29 06:34:39;;;;;;;0.15;0.15;;;;;;;;;;4962473;28;20038;-89
2023/09/29 06:37:05;;;;;;;0.20;0.20;;;;;;;;;;4963524;28;20102;-90
2023/09/29 06:39:31;;;;;;;0.20;0.20;;;;;;;;;;4960876;28;20484;-90
2023/09/29 06:41:57;;;;;;;0.20;0.20;;;;;;;;;;4961352;28;20045;-90
2023/09/29 06:44:23;;;;;;;0.10;0.10;;;;;;;;;;4978198;28;20039;-90
2023/09/29 06:46:52;;;;;;;0.10;0.10;;;;;;;;;;4961678;28;20030;-89
2023/09/29 06:49:18;;;;;;;0.10;0.10;;;;;;;;;;4961223;28;20097;-90
2023/09/29 06:51:44;;;;;;;0.20;0.20;;;;;;;;;;4963380;28;20043;-90
2023/09/29 06:54:10;;;;;;;0.10;0.10;;;;;;;;;;4962052;28;20050;-89
2023/09/29 06:56:37;;;;;;;0.20;0.20;;;;;;;;;;4963824;28;20045;-92
2023/09/29 06:59:03;;;;;;;0.10;0.10;;;;;;;;;;4961001;28;20046;-90
2023/09/29 07:01:29;;;;;;;0.20;0.20;;;;;;;;;;4977960;28;20035;-89
2023/09/29 07:03:55;;;;;;;0.20;0.20;;;;;;;;;;4976880;28;20049;-90
2023/09/29 07:06:23;;;;;;;0.20;0.20;;;;;;;;;;4961569;28;20125;-89
2023/09/29 07:08:49;;;;;;;0.10;0.10;;;;;;;;;;4960611;28;20109;-90
2023/09/29 07:11:15;;;;;;;0.10;0.10;;;;;;;;;;4961116;28;20093;-89
2023/09/29 07:13:41;;;;;;;0.10;0.10;;;;;;;;;;4961561;28;20053;-89
2023/09/29 07:16:07;;;;;;;0.20;0.20;;;;;;;;;;4961766;28;20046;-90
2023/09/29 07:18:34;;;;;;;0.10;0.10;;;;;;;;;;4960079;28;20050;-90
2023/09/29 07:21:06;;;;;;;0.17;0.17;;;;;;;;;;4978456;28;20046;-89
2023/09/29 07:23:34;;;;;;;0.20;0.20;;;;;;;;;;4960605;28;20403;-90
2023/09/29 07:26:00;;;;;;;0.10;0.10;;;;;;;;;;4962017;28;20687;-89
2023/09/29 07:28:26;;;;;;;0.17;0.17;;;;;;;;;;4959755;28;20042;-90
2023/09/29 07:30:53;;;;;;;0.10;0.10;;;;;;;;;;4960988;28;20043;-90
2023/09/29 07:33:19;;;;;;;0.10;0.10;;;;;;;;;;4977201;28;20039;-89
2023/09/29 07:35:46;;;;;;;0.10;0.10;;;;;;;;;;4963007;28;20057;-91
2023/09/29 07:38:13;;;;;;;0.30;0.30;;;;;;;;;;4977136;28;20066;-89
2023/09/29 07:40:39;;;;;;;0.10;0.10;;;;;;;;;;4961388;28;20047;-91
2023/09/29 07:43:05;;;;;;;0.10;0.10;;;;;;;;;;4961942;28;20043;-91
2023/09/29 07:45:34;;;;;;;0.17;0.17;;;;;;;;;;4961445;28;20034;-89
2023/09/29 07:48:01;;;;;;;0.10;0.10;;;;;;;;;;4960385;28;20043;-91
2023/09/29 07:50:28;;;;;;;0.13;0.13;;;;;;;;;;4963098;28;20046;-92
2023/09/29 07:52:54;;;;;;;0.20;0.20;;;;;;;;;;4977401;28;20050;-91
2023/09/29 07:55:20;;;;;;;0.10;0.10;;;;;;;;;;4962537;28;20046;-91
2023/09/29 07:57:46;;;;;;;0.10;0.10;;;;;;;;;;4961389;28;20500;-91
2023/09/29 08:00:14;;;;;;;0.10;0.10;;;;;;;;;;4961903;28;20046;-90
2023/09/29 08:03:04;;;;;;;0.10;0.10;;;;;;;;;;4961889;28;20026;-91
2023/09/29 08:05:30;;;;;;;0.00;0.00;;;;;;;;;;4961806;28;20047;-92
2023/09/29 08:07:56;;;;;;;0.20;0.20;;;;;;;;;;4978420;28;20086;-90
2023/09/29 08:10:22;;;;;;;0.15;0.15;;;;;;;;;;4977731;28;20049;-92
2023/09/29 08:12:48;;;;;;;0.10;0.10;;;;;;;;;;4961496;28;20042;-90
2023/09/29 08:15:20;;;;;;;0.10;0.10;;;;;;;;;;4960776;28;20081;-91
2023/09/29 08:17:46;;;;;;;0.20;0.20;;;;;;;;;;4961039;28;20500;-92
2023/09/29 08:20:14;;;;;;;0.00;0.00;;;;;;;;;;4961960;28;20039;-93
2023/09/29 08:22:43;;;;;;;0.15;0.15;;;;;;;;;;4962252;28;20439;-90
2023/09/29 08:25:13;;;;;;;0.30;0.30;;;;;;;;;;4961613;28;20035;-91
2023/09/29 08:27:42;;;;;;;0.10;0.10;;;;;;;;;;4961734;28;20093;-91
2023/09/29 08:30:08;;;;;;;0.20;0.20;;;;;;;;;;4961244;28;20043;-91
2023/09/29 08:32:42;;;;;;;0.10;0.10;;;;;;;;;;4951319;28;20081;-92
2023/09/29 08:35:13;;;;;;;0.10;0.10;;;;;;;;;;4960932;28;20046;-91
2023/09/29 08:37:39;;;;;;;0.10;0.10;;;;;;;;;;4964588;28;20148;-91
2023/09/29 08:40:09;;;;;;;0.10;0.10;;;;;;;;;;4963806;28;20039;-91
2023/09/29 08:42:36;;;;;;;0.10;0.10;;;;;;;;;;4957184;29;20042;-92
2023/09/29 08:45:08;;;;;;;0.10;0.10;;;;;;;;;;4957322;28;20047;-90
2023/09/29 08:47:37;;;;;;;0.40;0.40;;;;;;;;;;4981068;28;20062;-92
2023/09/29 08:50:19;;;;;;;0.08;0.08;;;;;;;;;;4949989;28;20038;-91
2023/09/29 08:52:45;;;;;;;0.20;0.20;;;;;;;;;;4965755;28;20081;-92
2023/09/29 08:55:14;;;;;;;0.13;0.13;;;;;;;;;;4950434;29;20050;-92
2023/09/29 08:57:45;;;;;;;0.05;0.05;;;;;;;;;;4964214;28;20122;-92
2023/09/29 09:00:12;;;;;;;0.05;0.05;;;;;;;;;;4965152;28;20054;-92
2023/09/29 09:02:41;;;;;;;0.10;0.10;;;;;;;;;;4956020;28;20051;-91
2023/09/29 09:05:12;;;;;;;0.17;0.17;;;;;;;;;;4965145;28;20043;-90
2023/09/29 09:07:43;;;;;;;0.10;0.10;;;;;;;;;;4945906;29;20043;-92
2023/09/29 09:10:10;;;;;;;0.17;0.17;;;;;;;;;;4956753;28;20053;-91
2023/09/29 09:12:36;;;;;;;0.20;0.20;;;;;;;;;;4979713;28;20042;-91
2023/09/29 09:15:24;;;;;;;0.10;0.10;;;;;;;;;;4963364;28;20126;-90
2023/09/29 09:17:52;;;;;;;0.00;0.00;;;;;;;;;;4980192;28;20045;-90
2023/09/29 09:20:18;;;;;;;0.20;0.20;;;;;;;;;;4964119;28;20035;-92
2023/09/29 09:22:45;;;;;;;0.10;0.10;;;;;;;;;;4964537;28;20034;-91
2023/09/29 09:25:14;;;;;;;0.10;0.10;;;;;;;;;;4965876;28;20046;-91
2023/09/29 09:28:14;;;;;;;0.10;0.10;;;;;;;;;;4964740;28;20507;-91
2023/09/29 09:30:41;;;;;;;0.10;0.10;;;;;;;;;;4954395;28;20043;-92
2023/09/29 09:33:16;;;;;;;0.03;0.03;;;;;;;;;;4964244;28;20047;-91
2023/09/29 09:35:44;;;;;;;0.10;0.10;;;;;;;;;;4965313;28;20413;-92
2023/09/29 09:38:12;;;;;;;0.10;0.10;;;;;;;;;;4963901;28;20046;-92
2023/09/29 09:40:39;;;;;;;0.10;0.10;;;;;;;;;;4958950;29;20043;-90
2023/09/29 09:43:08;;;;;;;0.10;0.10;;;;;;;;;;4948976;28;20070;-92
2023/09/29 09:45:39;;;;;;;0.10;0.10;;;;;;;;;;4958726;28;20043;-91
2023/09/29 09:48:06;;;;;;;0.40;0.40;;;;;;;;;;4947650;28;20047;-90
2023/09/29 09:50:33;;;;;;;0.10;0.10;;;;;;;;;;4957303;29;20043;-91
2023/09/29 09:53:02;;;;;;;0.08;0.08;;;;;;;;;;4944550;29;20039;-89
2023/09/29 09:55:36;;;;;;;0.20;0.20;;;;;;;;;;4950449;28;20034;-90
2023/09/29 09:58:10;;;;;;;0.30;0.30;;;;;;;;;;4959194;28;20035;-92
2023/09/29 10:00:37;;;;;;;0.10;0.10;;;;;;;;;;4962935;28;20081;-91
2023/09/29 10:03:11;;;;;;;0.20;0.20;;;;;;;;;;4965933;28;20504;-92
2023/09/29 10:05:40;;;;;;;0.00;0.00;;;;;;;;;;4952354;28;20046;-92
2023/09/29 10:08:07;;;;;;;0.15;0.15;;;;;;;;;;4963943;28;20043;-92
2023/09/29 10:10:34;;;;;;;0.00;0.00;;;;;;;;;;4979265;28;20047;-91
2023/09/29 10:13:00;;;;;;;0.15;0.15;;;;;;;;;;4963265;28;20043;-92
2023/09/29 10:15:30;;;;;;;0.10;0.10;;;;;;;;;;4963617;28;20050;-91
2023/09/29 10:17:59;;;;;;;0.10;0.10;;;;;;;;;;4963460;28;20519;-91
2023/09/29 10:20:28;;;;;;;0.10;0.10;;;;;;;;;;4963127;28;20035;-92
2023/09/29 10:25:58;;;;;;;0.00;0.00;;;;;;;;;;4980433;28;20058;-91
2023/09/29 10:28:34;;;;;;;0.10;0.10;;;;;;;;;;4962763;28;20053;-91
2023/09/29 10:31:14;;;;;;;0.10;0.10;;;;;;;;;;4963112;28;20054;-90
2023/09/29 10:36:44;;;;;;;0.10;0.10;;;;;;;;;;4961375;29;20420;-90
2023/09/29 10:39:10;;;;;;;0.45;0.45;;;;;;;;;;4943765;29;20039;-92
2023/09/29 10:41:37;;;;;;;0.60;0.60;;;;;;;;;;4943920;29;20058;-92
2023/09/29 10:44:07;;;;;;;0.03;0.03;;;;;;;;;;4944823;29;20104;-91
2023/09/29 10:46:33;;;;;;;0.10;0.10;;;;;;;;;;4956111;28;20054;-92
2023/09/29 10:49:08;;;;;;;0.10;0.10;;;;;;;;;;4961898;28;21536;-91
2023/09/29 10:51:37;;;;;;;0.00;0.00;;;;;;;;;;4964109;28;20046;-91
2023/09/29 10:54:07;;;;;;;0.10;0.10;;;;;;;;;;4959245;28;20042;-91
2023/09/29 10:56:34;;;;;;;0.10;0.10;;;;;;;;;;4974932;28;20051;-92
2023/09/29 10:59:08;;;;;;;0.00;0.00;;;;;;;;;;4959483;28;20035;-90
2023/09/29 11:01:35;;;;;;;0.08;0.08;;;;;;;;;;4972560;28;20039;-92
2023/09/29 11:04:02;;;;;;;0.10;0.10;;;;;;;;;;4934187;28;20043;-92
2023/09/29 11:06:28;;;;;;;0.10;0.10;;;;;;;;;;4962557;28;20086;-91
2023/09/29 11:09:00;;;;;;;0.10;0.10;;;;;;;;;;4962566;28;20492;-92
2023/09/29 11:11:33;;;;;;;0.20;0.20;;;;;;;;;;4949634;29;20456;-90
2023/09/29 11:13:59;;;;;;;0.20;0.20;;;;;;;;;;4958621;28;20138;-92
2023/09/29 11:16:27;;;;;;;0.10;0.10;;;;;;;;;;4962108;28;20557;-93
2023/09/29 11:19:09;;;;;;;0.00;0.00;;;;;;;;;;4963824;28;20039;-92
2023/09/29 11:21:40;;;;;;;0.10;0.10;;;;;;;;;;4961228;28;20142;-91
2023/09/29 11:24:16;;;;;;;0.10;0.10;;;;;;;;;;4963701;28;20046;-91
2023/09/29 11:26:47;;;;;;;0.10;0.10;;;;;;;;;;4962212;28;20051;-91
2023/09/29 11:29:24;;;;;;;0.03;0.03;;;;;;;;;;4950905;29;20051;-90
2023/09/29 11:32:01;;;;;;;0.10;0.10;;;;;;;;;;4946707;28;20031;-90
2023/09/29 11:34:39;;;;;;;0.10;0.10;;;;;;;;;;4952545;28;20038;-91
2023/09/29 11:40:21;;;;;;;0.10;0.10;;;;;;;;;;4974417;28;20118;-92
2023/09/29 11:42:52;;;;;;;;;;;;;;;;;;4962042;28;20038;-92
2023/09/29 11:45:19;;;;;;;0.10;0.10;;;;;;;;;;4950686;29;19922;-92
2023/09/29 11:50:53;;;;;;;0.08;0.08;;;;;;;;;;4978697;28;20070;-93
2023/09/29 11:53:19;;;;;;;0.08;0.08;;;;;;;;;;4961855;28;20046;-91
2023/09/29 11:55:45;;;;;;;0.05;0.05;;;;;;;;;;4962404;28;20043;-93
2023/09/29 11:58:23;;;;;;;0.22;0.22;;;;;;;;;;4962102;28;20050;-91
2023/09/29 12:00:49;;;;;;;0.10;0.10;;;;;;;;;;4957942;29;20045;-93
2023/09/29 12:03:17;;;;;;;0.20;0.20;;;;;;;;;;4956834;28;20035;-93
2023/09/29 12:05:51;;;;;;;0.10;0.10;;;;;;;;;;4963474;28;20051;-93
2023/09/29 12:12:18;;;;;;;0.10;0.10;;;;;;;;;;4975806;28;20038;-91
2023/09/29 12:15:27;;;;;;;0.10;0.10;;;;;;;;;;4962489;28;20035;-93
2023/09/29 15:52:24;;;;;;;0.20;0.20;;;;;;;;;;817967;23;20383;-91
2023/09/29 15:54:50;;;;;;;0.30;0.30;;;;;;;;;;4987163;28;20050;-93
2023/09/29 15:57:16;;;;;;;0.20;0.20;;;;;;;;;;4986485;28;20543;-92
2023/09/29 15:59:43;;;;;;;0.20;0.20;;;;;;;;;;4986818;28;20101;-92
2023/09/29 16:02:09;;;;;;;0.22;0.22;;;;;;;;;;4969103;28;20449;-94
2023/09/29 16:04:36;;;;;;;0.20;0.20;;;;;;;;;;4969142;28;20094;-94
2023/09/29 16:07:04;;;;;;;0.10;0.10;;;;;;;;;;4987699;28;20133;-93
2023/09/29 16:09:30;;;;;;;0.10;0.10;;;;;;;;;;4980869;28;20084;-91
2023/09/29 16:11:56;;;;;;;0.20;0.20;;;;;;;;;;4984452;28;20047;-90
2023/09/29 16:14:22;;;;;;;0.30;0.30;;;;;;;;;;4997860;28;20046;-92
2023/09/29 16:16:48;;;;;;;0.28;0.28;;;;;;;;;;4989018;28;20150;-92
2023/09/29 16:19:41;;;;;;;0.10;0.10;;;;;;;;;;4988448;28;20046;-91
2023/09/29 16:22:09;;;;;;;0.30;0.30;;;;;;;;;;4986794;28;20126;-90
2023/09/29 16:24:43;;;;;;;0.25;0.25;;;;;;;;;;4985486;28;20502;-92
2023/09/29 16:27:09;;;;;;;0.20;0.20;;;;;;;;;;4969397;28;20046;-92
2023/09/29 16:29:36;;;;;;;0.10;0.10;;;;;;;;;;4967512;28;20051;-91
2023/09/29 16:32:02;;;;;;;0.20;0.20;;;;;;;;;;4968673;28;20051;-91
2023/09/29 16:34:29;;;;;;;0.10;0.10;;;;;;;;;;4968344;28;20046;-91
2023/09/29 16:36:55;;;;;;;0.20;0.20;;;;;;;;;;4953441;28;20046;-90
2023/09/29 16:39:21;;;;;;;0.20;0.20;;;;;;;;;;4985315;28;20122;-92
2023/09/29 16:41:47;;;;;;;0.22;0.22;;;;;;;;;;4968947;28;20055;-91
2023/09/29 16:44:13;;;;;;;0.20;0.20;;;;;;;;;;4984587;28;20049;-92
2023/09/29 16:46:40;;;;;;;0.25;0.25;;;;;;;;;;4988294;28;20053;-92
2023/09/29 16:49:06;;;;;;;0.30;0.30;;;;;;;;;;4986616;28;20089;-93
2023/09/29 16:51:33;;;;;;;0.20;0.20;;;;;;;;;;4987944;28;20068;-91
2023/09/29 16:54:01;;;;;;;0.30;0.30;;;;;;;;;;4986643;28;20046;-92
2023/09/29 16:56:28;;;;;;;0.17;0.17;;;;;;;;;;4970291;28;20034;-92
2023/09/29 16:58:55;;;;;;;0.10;0.10;;;;;;;;;;4985033;28;20047;-92
2023/09/29 17:01:22;;;;;;;0.20;0.20;;;;;;;;;;4985443;28;20139;-93
2023/09/29 17:03:48;;;;;;;0.10;0.10;;;;;;;;;;4983248;28;20027;-92
2023/09/29 17:06:14;;;;;;;0.20;0.20;;;;;;;;;;4986075;28;20042;-93
2023/09/29 17:08:40;;;;;;;0.10;0.10;;;;;;;;;;4983865;28;20038;-93
2023/09/29 17:11:19;;;;;;;0.28;0.28;;;;;;;;;;4983398;28;20038;-92
2023/09/29 17:13:46;;;;;;;0.10;0.10;;;;;;;;;;4980365;28;20060;-91
2023/09/29 17:16:17;;;;;;;0.17;0.17;;;;;;;;;;4982533;28;20056;-90
2023/09/29 17:18:43;;;;;;;0.20;0.20;;;;;;;;;;4984195;28;20046;-92
2023/09/29 17:21:13;;;;;;;0.20;0.20;;;;;;;;;;4981602;28;20094;-92
2023/09/29 17:23:39;;;;;;;0.17;0.17;;;;;;;;;;4965036;28;20070;-91
2023/09/29 17:26:11;;;;;;;0.20;0.20;;;;;;;;;;4966921;28;20522;-92
2023/09/29 17:28:37;;;;;;;0.20;0.20;;;;;;;;;;5000635;28;20133;-93
2023/09/29 17:31:07;;;;;;;0.20;0.20;;;;;;;;;;4985839;28;20162;-92
2023/09/29 17:33:33;;;;;;;0.20;0.20;;;;;;;;;;4984562;28;20151;-92
2023/09/29 17:35:59;;;;;;;0.30;0.30;;;;;;;;;;4985606;28;20041;-93
2023/09/29 17:38:26;;;;;;;0.20;0.20;;;;;;;;;;4983910;28;20081;-93
2023/09/29 17:40:53;;;;;;;0.20;0.20;;;;;;;;;;4985712;28;20487;-93
2023/09/29 17:43:19;;;;;;;0.30;0.30;;;;;;;;;;5002456;28;20043;-93
2023/09/29 17:45:46;;;;;;;0.20;0.20;;;;;;;;;;4985390;28;20046;-92
2023/09/29 17:48:12;;;;;;;0.17;0.17;;;;;;;;;;4967214;28;20521;-92
2023/09/29 17:50:48;;;;;;;0.20;0.20;;;;;;;;;;4975503;28;20070;-92
2023/09/29 17:53:14;;;;;;;0.30;0.30;;;;;;;;;;4949776;28;20037;-91
2023/09/29 17:55:40;;;;;;;0.10;0.10;;;;;;;;;;4982735;28;20105;-91
2023/09/29 17:58:06;;;;;;;0.20;0.20;;;;;;;;;;4982439;28;20066;-93
2023/09/29 18:00:32;;;;;;;0.20;0.20;;;;;;;;;;4979164;28;20078;-92
2023/09/29 18:02:59;;;;;;;0.20;0.20;;;;;;;;;;4973891;28;20167;-93
2023/09/29 18:05:26;;;;;;;0.10;0.10;;;;;;;;;;4966767;28;20054;-93
2023/09/29 18:07:52;;;;;;;0.10;0.10;;;;;;;;;;4984164;28;20042;-93
2023/09/29 18:10:18;;;;;;;0.20;0.20;;;;;;;;;;5000141;28;20046;-92
2023/09/29 18:12:44;;;;;;;0.20;0.20;;;;;;;;;;4968881;28;20043;-92
2023/09/29 18:15:10;;;;;;;0.15;0.15;;;;;;;;;;4984389;28;20042;-92
2023/09/29 18:17:36;;;;;;;0.20;0.20;;;;;;;;;;4977538;28;20046;-92
2023/09/29 18:20:02;;;;;;;0.15;0.15;;;;;;;;;;4980024;28;20144;-90
2023/09/29 18:22:32;;;;;;;0.20;0.20;;;;;;;;;;4985483;28;20078;-91
2023/09/29 18:24:58;;;;;;;0.20;0.20;;;;;;;;;;4977483;28;20046;-92
2023/09/29 18:27:24;;;;;;;0.15;0.15;;;;;;;;;;4972762;28;20122;-92
2023/09/29 18:29:50;;;;;;;0.30;0.30;;;;;;;;;;4973358;28;20053;-91
2023/09/29 18:32:16;;;;;;;0.10;0.10;;;;;;;;;;4984617;28;20048;-92
2023/09/29 18:34:42;;;;;;;0.20;0.20;;;;;;;;;;4969226;28;20126;-90
2023/09/29 18:37:08;;;;;;;0.30;0.30;;;;;;;;;;4985324;28;20046;-91
2023/09/29 18:39:34;;;;;;;0.10;0.10;;;;;;;;;;4997830;28;20042;-93